sensor_id;sensor_type;location;lat;lon;timestamp;P1;P2;P0
60058;PMS7003;45932;50.658;3.022;2022-10-31T00:01:24;7.00;5.67;4.00
60058;PMS7003;45932;50.658;3.022;2022-10-31T00:03:54;5.00;5.00;4.00
60058;PMS7003;45932;50.658;3.022;2022-10-31T00:06:20;10.67;6.67;5.67
60058;PMS7003;45932;50.658;3.022;2022-10-31T00:08:53;5.33;5.33;4.33
60058;PMS7003;45932;50.658;3.022;2022-10-31T00:11:20;8.00;8.00;6.00
60058;PMS7003;45932;50.658;3.022;2022-10-31T00:13:46;6.33;6.33;4.00
60058;PMS7003;45932;50.658;3.022;2022-10-31T00:16:15;5.67;5.67;3.33
60058;PMS7003;45932;50.658;3.022;2022-10-31T00:18:42;6.67;5.67;4.00
60058;PMS7003;45932;50.658;3.022;2022-10-31T00:21:08;9.00;6.67;4.33
60058;PMS7003;45932;50.658;3.022;2022-10-31T00:23:33;9.00;6.67;5.33
60058;PMS7003;45932;50.658;3.022;2022-10-31T00:26:02;7.33;6.33;5.33
60058;PMS7003;45932;50.658;3.022;2022-10-31T00:28:29;8.33;6.67;5.33
60058;PMS7003;45932;50.658;3.022;2022-10-31T00:30:58;11.00;8.00;6.00
60058;PMS7003;45932;50.658;3.022;2022-10-31T00:33:27;8.67;7.33;6.00
60058;PMS7003;45932;50.658;3.022;2022-10-31T00:35:53;7.67;7.67;5.67
60058;PMS7003;45932;50.658;3.022;2022-10-31T00:38:18;11.00;8.00;5.33
60058;PMS7003;45932;50.658;3.022;2022-10-31T00:40:44;10.00;7.00;5.33
60058;PMS7003;45932;50.658;3.022;2022-10-31T00:43:09;3.33;1.67;1.33
60058;PMS7003;45932;50.658;3.022;2022-10-31T00:45:34;5.33;5.33;4.00
60058;PMS7003;45932;50.658;3.022;2022-10-31T00:48:00;5.33;5.33;4.67
60058;PMS7003;45932;50.658;3.022;2022-10-31T00:50:25;5.33;5.33;4.00
60058;PMS7003;45932;50.658;3.022;2022-10-31T00:52:50;6.67;6.33;4.67
60058;PMS7003;45932;50.658;3.022;2022-10-31T00:55:16;5.33;4.67;3.67
60058;PMS7003;45932;50.658;3.022;2022-10-31T00:57:41;5.67;5.67;4.00
60058;PMS7003;45932;50.658;3.022;2022-10-31T01:00:07;5.67;4.67;3.33
60058;PMS7003;45932;50.658;3.022;2022-10-31T01:02:33;5.67;5.67;3.00
60058;PMS7003;45932;50.658;3.022;2022-10-31T01:04:58;6.00;5.67;4.00
60058;PMS7003;45932;50.658;3.022;2022-10-31T01:07:24;7.33;6.00;4.33
60058;PMS7003;45932;50.658;3.022;2022-10-31T01:09:49;5.00;5.00;4.33
60058;PMS7003;45932;50.658;3.022;2022-10-31T01:12:14;7.00;5.00;3.00
60058;PMS7003;45932;50.658;3.022;2022-10-31T01:14:43;5.00;4.00;3.00
60058;PMS7003;45932;50.658;3.022;2022-10-31T01:17:10;5.00;5.00;4.00
60058;PMS7003;45932;50.658;3.022;2022-10-31T01:19:35;6.33;5.67;4.00
60058;PMS7003;45932;50.658;3.022;2022-10-31T01:22:01;6.33;6.33;5.00
60058;PMS7003;45932;50.658;3.022;2022-10-31T01:24:26;4.33;4.33;3.00
60058;PMS7003;45932;50.658;3.022;2022-10-31T01:26:51;5.67;5.67;4.33
60058;PMS7003;45932;50.658;3.022;2022-10-31T01:29:17;6.00;3.67;3.00
60058;PMS7003;45932;50.658;3.022;2022-10-31T01:31:45;6.67;6.67;3.00
60058;PMS7003;45932;50.658;3.022;2022-10-31T01:34:12;4.00;4.00;3.00
60058;PMS7003;45932;50.658;3.022;2022-10-31T01:36:39;5.33;4.00;3.00
60058;PMS7003;45932;50.658;3.022;2022-10-31T01:39:06;4.33;4.33;3.00
60058;PMS7003;45932;50.658;3.022;2022-10-31T01:41:35;7.33;6.33;4.33
60058;PMS7003;45932;50.658;3.022;2022-10-31T01:44:43;4.67;4.67;3.00
60058;PMS7003;45932;50.658;3.022;2022-10-31T01:52:24;5.67;5.67;3.67
60058;PMS7003;45932;50.658;3.022;2022-10-31T01:55:01;5.00;5.00;3.00
60058;PMS7003;45932;50.658;3.022;2022-10-31T01:57:31;4.00;4.00;3.00
60058;PMS7003;45932;50.658;3.022;2022-10-31T02:00:00;5.33;3.67;3.00
60058;PMS7003;45932;50.658;3.022;2022-10-31T02:02:29;7.67;5.33;3.00
60058;PMS7003;45932;50.658;3.022;2022-10-31T02:04:56;7.33;5.33;3.00
60058;PMS7003;45932;50.658;3.022;2022-10-31T02:07:36;6.67;6.67;4.33
60058;PMS7003;45932;50.658;3.022;2022-10-31T02:10:07;5.33;5.33;4.33
60058;PMS7003;45932;50.658;3.022;2022-10-31T02:12:32;4.33;3.67;3.00
60058;PMS7003;45932;50.658;3.022;2022-10-31T02:15:01;5.00;3.33;2.67
60058;PMS7003;45932;50.658;3.022;2022-10-31T02:17:28;5.33;5.00;4.00
60058;PMS7003;45932;50.658;3.022;2022-10-31T02:20:12;6.33;6.00;4.33
60058;PMS7003;45932;50.658;3.022;2022-10-31T02:25:45;4.33;3.00;3.00
60058;PMS7003;45932;50.658;3.022;2022-10-31T02:28:51;8.67;6.67;5.00
60058;PMS7003;45932;50.658;3.022;2022-10-31T02:36:52;5.00;5.00;4.00
60058;PMS7003;45932;50.658;3.022;2022-10-31T02:39:37;5.33;5.33;4.33
60058;PMS7003;45932;50.658;3.022;2022-10-31T02:44:51;6.33;5.00;4.33
60058;PMS7003;45932;50.658;3.022;2022-10-31T02:47:29;5.67;5.33;5.00
60058;PMS7003;45932;50.658;3.022;2022-10-31T02:50:07;6.33;6.33;4.33
60058;PMS7003;45932;50.658;3.022;2022-10-31T02:52:37;5.67;5.67;4.67
60058;PMS7003;45932;50.658;3.022;2022-10-31T02:55:10;7.67;6.33;4.00
60058;PMS7003;45932;50.658;3.022;2022-10-31T03:05:55;7.67;6.33;4.67
60058;PMS7003;45932;50.658;3.022;2022-10-31T03:11:14;6.00;5.00;3.67
60058;PMS7003;45932;50.658;3.022;2022-10-31T03:13:56;5.00;5.00;3.67
60058;PMS7003;45932;50.658;3.022;2022-10-31T03:19:07;5.33;4.33;3.67
60058;PMS7003;45932;50.658;3.022;2022-10-31T03:21:37;6.33;5.67;5.00
60058;PMS7003;45932;50.658;3.022;2022-10-31T03:24:08;6.00;4.33;3.33
60058;PMS7003;45932;50.658;3.022;2022-10-31T03:26:37;4.33;4.33;3.00
60058;PMS7003;45932;50.658;3.022;2022-10-31T03:29:08;4.00;4.00;2.67
60058;PMS7003;45932;50.658;3.022;2022-10-31T03:31:45;7.33;5.00;3.33
60058;PMS7003;45932;50.658;3.022;2022-10-31T03:34:15;3.67;3.67;2.00
60058;PMS7003;45932;50.658;3.022;2022-10-31T03:36:44;6.00;4.67;3.00
60058;PMS7003;45932;50.658;3.022;2022-10-31T03:39:14;6.33;4.67;4.00
60058;PMS7003;45932;50.658;3.022;2022-10-31T03:41:43;4.33;4.33;2.33
60058;PMS7003;45932;50.658;3.022;2022-10-31T03:44:13;6.00;5.33;4.00
60058;PMS7003;45932;50.658;3.022;2022-10-31T03:46:42;5.00;5.00;4.33
60058;PMS7003;45932;50.658;3.022;2022-10-31T03:49:08;6.67;4.00;4.00
60058;PMS7003;45932;50.658;3.022;2022-10-31T03:51:43;5.33;5.33;3.00
60058;PMS7003;45932;50.658;3.022;2022-10-31T03:54:19;5.00;4.33;4.00
60058;PMS7003;45932;50.658;3.022;2022-10-31T03:56:57;4.00;4.00;2.33
60058;PMS7003;45932;50.658;3.022;2022-10-31T03:59:35;3.67;3.67;3.00
60058;PMS7003;45932;50.658;3.022;2022-10-31T04:02:11;3.67;3.00;2.00
60058;PMS7003;45932;50.658;3.022;2022-10-31T04:04:40;7.33;6.33;4.33
60058;PMS7003;45932;50.658;3.022;2022-10-31T04:07:10;7.00;6.33;4.67
60058;PMS7003;45932;50.658;3.022;2022-10-31T04:09:39;7.67;5.33;3.00
60058;PMS7003;45932;50.658;3.022;2022-10-31T04:12:08;7.00;6.00;4.33
60058;PMS7003;45932;50.658;3.022;2022-10-31T04:14:37;5.33;5.33;4.33
60058;PMS7003;45932;50.658;3.022;2022-10-31T04:17:05;6.33;6.00;4.67
60058;PMS7003;45932;50.658;3.022;2022-10-31T04:19:34;8.00;7.00;5.33
60058;PMS7003;45932;50.658;3.022;2022-10-31T04:21:59;6.67;5.33;4.33
60058;PMS7003;45932;50.658;3.022;2022-10-31T04:24:25;7.33;7.33;4.67
60058;PMS7003;45932;50.658;3.022;2022-10-31T04:26:50;6.67;6.33;3.67
60058;PMS7003;45932;50.658;3.022;2022-10-31T04:29:15;6.33;6.00;4.33
60058;PMS7003;45932;50.658;3.022;2022-10-31T04:31:41;8.00;6.00;4.67
60058;PMS7003;45932;50.658;3.022;2022-10-31T04:34:09;11.33;9.33;6.67
60058;PMS7003;45932;50.658;3.022;2022-10-31T04:36:34;6.00;6.00;3.67
60058;PMS7003;45932;50.658;3.022;2022-10-31T04:38:59;5.33;5.33;4.33
60058;PMS7003;45932;50.658;3.022;2022-10-31T04:41:25;3.00;3.00;2.00
60058;PMS7003;45932;50.658;3.022;2022-10-31T04:43:50;6.67;5.67;4.00
60058;PMS7003;45932;50.658;3.022;2022-10-31T04:46:15;3.67;3.67;3.00
60058;PMS7003;45932;50.658;3.022;2022-10-31T04:48:41;5.00;5.00;4.00
60058;PMS7003;45932;50.658;3.022;2022-10-31T04:51:06;4.00;4.00;2.33
60058;PMS7003;45932;50.658;3.022;2022-10-31T04:53:31;5.33;4.67;2.67
60058;PMS7003;45932;50.658;3.022;2022-10-31T04:55:57;8.00;6.67;4.67
60058;PMS7003;45932;50.658;3.022;2022-10-31T04:58:24;8.33;7.67;5.33
60058;PMS7003;45932;50.658;3.022;2022-10-31T05:00:53;9.67;7.67;5.33
60058;PMS7003;45932;50.658;3.022;2022-10-31T05:03:19;8.33;8.33;5.67
60058;PMS7003;45932;50.658;3.022;2022-10-31T05:05:46;7.33;7.33;4.67
60058;PMS7003;45932;50.658;3.022;2022-10-31T05:08:12;7.67;7.67;4.67
60058;PMS7003;45932;50.658;3.022;2022-10-31T05:10:39;6.67;5.33;3.67
60058;PMS7003;45932;50.658;3.022;2022-10-31T05:13:05;7.67;7.33;5.00
60058;PMS7003;45932;50.658;3.022;2022-10-31T05:15:31;7.67;7.67;6.33
60058;PMS7003;45932;50.658;3.022;2022-10-31T05:17:57;7.00;7.00;4.33
60058;PMS7003;45932;50.658;3.022;2022-10-31T05:20:27;7.00;6.00;4.00
60058;PMS7003;45932;50.658;3.022;2022-10-31T05:22:54;8.00;5.67;5.33
60058;PMS7003;45932;50.658;3.022;2022-10-31T05:25:22;9.33;8.33;5.67
60058;PMS7003;45932;50.658;3.022;2022-10-31T05:27:49;9.00;9.00;6.00
60058;PMS7003;45932;50.658;3.022;2022-10-31T05:30:17;9.00;8.33;6.33
60058;PMS7003;45932;50.658;3.022;2022-10-31T05:32:45;10.00;7.67;6.67
60058;PMS7003;45932;50.658;3.022;2022-10-31T05:35:20;11.00;11.00;8.00
60058;PMS7003;45932;50.658;3.022;2022-10-31T05:37:47;11.33;10.00;7.00
60058;PMS7003;45932;50.658;3.022;2022-10-31T05:40:14;8.67;7.67;5.67
60058;PMS7003;45932;50.658;3.022;2022-10-31T05:42:41;11.67;7.67;6.33
60058;PMS7003;45932;50.658;3.022;2022-10-31T05:45:10;9.33;9.33;6.00
60058;PMS7003;45932;50.658;3.022;2022-10-31T05:47:38;9.67;9.67;6.67
60058;PMS7003;45932;50.658;3.022;2022-10-31T05:50:04;10.00;9.33;6.00
60058;PMS7003;45932;50.658;3.022;2022-10-31T05:52:30;14.00;13.67;9.00
60058;PMS7003;45932;50.658;3.022;2022-10-31T05:54:55;8.67;8.00;5.33
60058;PMS7003;45932;50.658;3.022;2022-10-31T05:57:20;14.67;11.67;7.67
60058;PMS7003;45932;50.658;3.022;2022-10-31T05:59:46;12.33;11.00;8.33
60058;PMS7003;45932;50.658;3.022;2022-10-31T06:02:11;12.67;12.67;9.67
60058;PMS7003;45932;50.658;3.022;2022-10-31T06:04:36;10.33;10.33;7.00
60058;PMS7003;45932;50.658;3.022;2022-10-31T06:09:30;12.00;8.33;6.00
60058;PMS7003;45932;50.658;3.022;2022-10-31T06:11:55;8.67;8.67;6.00
60058;PMS7003;45932;50.658;3.022;2022-10-31T06:14:21;12.67;9.00;6.00
60058;PMS7003;45932;50.658;3.022;2022-10-31T06:16:46;7.67;7.67;7.00
60058;PMS7003;45932;50.658;3.022;2022-10-31T06:19:11;8.33;7.00;5.67
60058;PMS7003;45932;50.658;3.022;2022-10-31T06:21:39;10.00;9.33;6.33
60058;PMS7003;45932;50.658;3.022;2022-10-31T06:24:04;9.00;8.67;5.00
60058;PMS7003;45932;50.658;3.022;2022-10-31T06:26:30;11.67;6.67;5.33
60058;PMS7003;45932;50.658;3.022;2022-10-31T06:28:55;10.00;9.00;5.33
60058;PMS7003;45932;50.658;3.022;2022-10-31T06:31:20;8.00;6.67;5.00
60058;PMS7003;45932;50.658;3.022;2022-10-31T06:33:46;7.00;7.00;5.00
60058;PMS7003;45932;50.658;3.022;2022-10-31T06:36:11;6.67;5.67;4.33
60058;PMS7003;45932;50.658;3.022;2022-10-31T06:38:36;6.00;6.00;4.67
60058;PMS7003;45932;50.658;3.022;2022-10-31T06:41:02;10.33;8.67;6.33
60058;PMS7003;45932;50.658;3.022;2022-10-31T06:43:29;9.00;9.00;6.33
60058;PMS7003;45932;50.658;3.022;2022-10-31T06:45:54;10.00;8.67;5.67
60058;PMS7003;45932;50.658;3.022;2022-10-31T06:48:20;9.00;9.00;6.67
60058;PMS7003;45932;50.658;3.022;2022-10-31T06:50:45;13.00;11.33;7.67
60058;PMS7003;45932;50.658;3.022;2022-10-31T06:53:10;15.00;12.67;9.67
60058;PMS7003;45932;50.658;3.022;2022-10-31T06:55:36;11.67;11.67;8.00
60058;PMS7003;45932;50.658;3.022;2022-10-31T06:58:01;17.00;16.33;10.67
60058;PMS7003;45932;50.658;3.022;2022-10-31T07:00:27;16.33;12.00;8.67
60058;PMS7003;45932;50.658;3.022;2022-10-31T07:05:24;27.00;20.00;12.67
60058;PMS7003;45932;50.658;3.022;2022-10-31T07:07:58;20.00;17.00;12.00
60058;PMS7003;45932;50.658;3.022;2022-10-31T07:10:25;20.67;14.67;10.00
60058;PMS7003;45932;50.658;3.022;2022-10-31T07:12:56;17.00;14.33;9.00
60058;PMS7003;45932;50.658;3.022;2022-10-31T07:15:26;16.33;14.33;10.33
60058;PMS7003;45932;50.658;3.022;2022-10-31T07:17:53;20.00;16.33;11.33
60058;PMS7003;45932;50.658;3.022;2022-10-31T07:20:18;13.67;13.00;9.67
60058;PMS7003;45932;50.658;3.022;2022-10-31T07:22:44;13.67;13.67;8.67
60058;PMS7003;45932;50.658;3.022;2022-10-31T07:25:10;23.00;19.00;12.33
60058;PMS7003;45932;50.658;3.022;2022-10-31T07:27:36;17.67;15.33;10.67
60058;PMS7003;45932;50.658;3.022;2022-10-31T07:30:05;17.00;15.00;10.33
60058;PMS7003;45932;50.658;3.022;2022-10-31T07:32:41;14.33;13.00;7.67
60058;PMS7003;45932;50.658;3.022;2022-10-31T07:35:09;14.33;13.67;8.33
60058;PMS7003;45932;50.658;3.022;2022-10-31T07:37:35;14.67;14.00;10.33
60058;PMS7003;45932;50.658;3.022;2022-10-31T07:40:04;17.00;16.00;11.33
60058;PMS7003;45932;50.658;3.022;2022-10-31T07:42:37;14.67;14.67;10.67
60058;PMS7003;45932;50.658;3.022;2022-10-31T07:45:04;19.00;14.67;10.33
60058;PMS7003;45932;50.658;3.022;2022-10-31T07:47:44;19.00;15.67;12.00
60058;PMS7003;45932;50.658;3.022;2022-10-31T07:50:13;15.33;14.33;7.67
60058;PMS7003;45932;50.658;3.022;2022-10-31T07:52:40;18.67;14.33;9.33
60058;PMS7003;45932;50.658;3.022;2022-10-31T07:55:05;16.67;15.67;13.00
60058;PMS7003;45932;50.658;3.022;2022-10-31T08:00:38;14.00;14.00;10.67
60058;PMS7003;45932;50.658;3.022;2022-10-31T08:03:06;13.67;13.33;8.67
60058;PMS7003;45932;50.658;3.022;2022-10-31T08:05:33;16.00;14.33;10.33
60058;PMS7003;45932;50.658;3.022;2022-10-31T08:07:59;18.00;16.67;11.00
60058;PMS7003;45932;50.658;3.022;2022-10-31T08:10:24;19.33;17.00;11.67
60058;PMS7003;45932;50.658;3.022;2022-10-31T08:12:57;21.33;16.67;13.00
60058;PMS7003;45932;50.658;3.022;2022-10-31T08:15:24;21.67;19.33;13.67
60058;PMS7003;45932;50.658;3.022;2022-10-31T08:17:50;16.33;16.33;10.33
60058;PMS7003;45932;50.658;3.022;2022-10-31T08:20:16;13.33;13.33;9.33
60058;PMS7003;45932;50.658;3.022;2022-10-31T08:22:41;15.33;15.00;10.67
60058;PMS7003;45932;50.658;3.022;2022-10-31T08:25:08;18.00;16.33;10.67
60058;PMS7003;45932;50.658;3.022;2022-10-31T08:27:36;20.00;16.33;11.00
60058;PMS7003;45932;50.658;3.022;2022-10-31T08:30:02;17.33;15.67;10.67
60058;PMS7003;45932;50.658;3.022;2022-10-31T08:32:27;15.67;14.67;9.67
60058;PMS7003;45932;50.658;3.022;2022-10-31T08:34:53;17.33;13.33;8.67
60058;PMS7003;45932;50.658;3.022;2022-10-31T08:37:18;19.00;15.33;11.33
60058;PMS7003;45932;50.658;3.022;2022-10-31T08:39:45;19.67;19.67;14.00
60058;PMS7003;45932;50.658;3.022;2022-10-31T08:42:11;17.33;15.33;11.00
60058;PMS7003;45932;50.658;3.022;2022-10-31T08:44:36;19.00;16.67;11.33
60058;PMS7003;45932;50.658;3.022;2022-10-31T08:47:02;16.33;14.33;10.00
60058;PMS7003;45932;50.658;3.022;2022-10-31T08:49:28;16.33;14.67;12.33
60058;PMS7003;45932;50.658;3.022;2022-10-31T08:51:53;16.33;14.67;11.33
60058;PMS7003;45932;50.658;3.022;2022-10-31T08:54:18;21.00;20.00;12.33
60058;PMS7003;45932;50.658;3.022;2022-10-31T08:56:44;19.67;16.00;12.00
60058;PMS7003;45932;50.658;3.022;2022-10-31T08:59:09;16.67;16.00;10.67
60058;PMS7003;45932;50.658;3.022;2022-10-31T09:01:34;16.67;14.33;11.00
60058;PMS7003;45932;50.658;3.022;2022-10-31T09:04:00;21.00;19.33;12.67
60058;PMS7003;45932;50.658;3.022;2022-10-31T09:06:25;21.00;17.00;12.00
60058;PMS7003;45932;50.658;3.022;2022-10-31T09:08:50;18.33;18.33;13.33
60058;PMS7003;45932;50.658;3.022;2022-10-31T09:11:16;22.33;20.33;14.67
60058;PMS7003;45932;50.658;3.022;2022-10-31T09:13:41;21.67;20.00;13.33
60058;PMS7003;45932;50.658;3.022;2022-10-31T09:16:07;15.67;14.67;11.00
60058;PMS7003;45932;50.658;3.022;2022-10-31T09:18:32;28.67;24.00;14.33
60058;PMS7003;45932;50.658;3.022;2022-10-31T09:20:58;21.33;19.67;12.33
60058;PMS7003;45932;50.658;3.022;2022-10-31T09:23:24;26.00;22.00;15.33
60058;PMS7003;45932;50.658;3.022;2022-10-31T09:25:51;21.00;19.67;13.67
60058;PMS7003;45932;50.658;3.022;2022-10-31T09:28:18;25.67;21.67;14.33
60058;PMS7003;45932;50.658;3.022;2022-10-31T09:30:46;18.00;16.33;11.33
60058;PMS7003;45932;50.658;3.022;2022-10-31T09:33:13;20.33;18.00;12.67
60058;PMS7003;45932;50.658;3.022;2022-10-31T09:35:39;18.33;18.33;13.67
60058;PMS7003;45932;50.658;3.022;2022-10-31T09:38:07;17.00;17.00;12.67
60058;PMS7003;45932;50.658;3.022;2022-10-31T09:40:35;15.67;12.67;9.33
60058;PMS7003;45932;50.658;3.022;2022-10-31T09:43:18;10.67;9.00;8.33
60058;PMS7003;45932;50.658;3.022;2022-10-31T09:51:16;15.33;14.67;10.33
60058;PMS7003;45932;50.658;3.022;2022-10-31T09:56:18;16.00;14.33;12.00
60058;PMS7003;45932;50.658;3.022;2022-10-31T09:58:46;19.33;14.00;11.67
60058;PMS7003;45932;50.658;3.022;2022-10-31T10:01:22;18.67;17.33;10.00
60058;PMS7003;45932;50.658;3.022;2022-10-31T10:04:25;15.67;12.67;9.67
60058;PMS7003;45932;50.658;3.022;2022-10-31T10:06:52;15.00;14.33;9.33
60058;PMS7003;45932;50.658;3.022;2022-10-31T10:09:20;14.33;14.33;10.33
60058;PMS7003;45932;50.658;3.022;2022-10-31T10:12:03;13.67;11.67;8.67
60058;PMS7003;45932;50.658;3.022;2022-10-31T10:17:35;19.00;13.67;9.00
60058;PMS7003;45932;50.658;3.022;2022-10-31T10:20:16;10.67;10.67;7.00
60058;PMS7003;45932;50.658;3.022;2022-10-31T10:25:49;11.67;8.33;6.33
60058;PMS7003;45932;50.658;3.022;2022-10-31T10:28:57;11.00;8.00;7.00
60058;PMS7003;45932;50.658;3.022;2022-10-31T10:31:33;9.00;7.67;6.33
60058;PMS7003;45932;50.658;3.022;2022-10-31T10:36:36;6.00;6.00;4.67
60058;PMS7003;45932;50.658;3.022;2022-10-31T10:41:47;9.00;9.00;6.00
60058;PMS7003;45932;50.658;3.022;2022-10-31T10:44:33;10.67;9.00;7.33
60058;PMS7003;45932;50.658;3.022;2022-10-31T10:47:21;10.00;9.00;5.67
60058;PMS7003;45932;50.658;3.022;2022-10-31T10:50:22;10.33;9.67;5.00
60058;PMS7003;45932;50.658;3.022;2022-10-31T10:56:07;9.67;9.67;7.33
60058;PMS7003;45932;50.658;3.022;2022-10-31T10:58:39;11.67;10.33;7.00
60058;PMS7003;45932;50.658;3.022;2022-10-31T11:01:14;8.33;7.67;6.33
60058;PMS7003;45932;50.658;3.022;2022-10-31T11:03:40;7.33;7.33;5.67
60058;PMS7003;45932;50.658;3.022;2022-10-31T11:06:15;9.00;7.67;6.33
60058;PMS7003;45932;50.658;3.022;2022-10-31T11:08:45;9.67;7.67;6.00
60058;PMS7003;45932;50.658;3.022;2022-10-31T11:11:22;7.00;7.00;5.33
60058;PMS7003;45932;50.658;3.022;2022-10-31T11:13:52;6.00;6.00;5.00
60058;PMS7003;45932;50.658;3.022;2022-10-31T11:18:51;7.33;7.00;5.00
60058;PMS7003;45932;50.658;3.022;2022-10-31T11:21:27;9.67;7.00;5.67
60058;PMS7003;45932;50.658;3.022;2022-10-31T11:24:12;9.67;9.33;6.67
60058;PMS7003;45932;50.658;3.022;2022-10-31T11:26:42;9.00;7.67;6.00
60058;PMS7003;45932;50.658;3.022;2022-10-31T11:31:57;10.00;10.00;7.00
60058;PMS7003;45932;50.658;3.022;2022-10-31T11:34:33;7.00;7.00;6.00
60058;PMS7003;45932;50.658;3.022;2022-10-31T11:37:24;8.67;8.67;6.33
60058;PMS7003;45932;50.658;3.022;2022-10-31T11:39:53;12.00;9.00;5.33
60058;PMS7003;45932;50.658;3.022;2022-10-31T11:42:22;9.33;7.00;5.33
60058;PMS7003;45932;50.658;3.022;2022-10-31T11:44:51;9.67;9.67;4.33
60058;PMS7003;45932;50.658;3.022;2022-10-31T11:47:21;11.33;10.67;6.67
60058;PMS7003;45932;50.658;3.022;2022-10-31T11:49:51;8.00;6.33;5.00
60058;PMS7003;45932;50.658;3.022;2022-10-31T11:52:19;8.33;7.00;5.00
60058;PMS7003;45932;50.658;3.022;2022-10-31T11:57:28;6.67;4.67;3.00
60058;PMS7003;45932;50.658;3.022;2022-10-31T11:59:59;10.00;9.33;6.00
60058;PMS7003;45932;50.658;3.022;2022-10-31T12:02:25;9.67;8.67;6.00
60058;PMS7003;45932;50.658;3.022;2022-10-31T12:05:08;10.00;9.67;7.00
60058;PMS7003;45932;50.658;3.022;2022-10-31T12:07:42;7.33;6.00;4.67
60058;PMS7003;45932;50.658;3.022;2022-10-31T12:10:11;9.67;8.00;6.00
60058;PMS7003;45932;50.658;3.022;2022-10-31T12:15:22;9.00;9.00;6.67
60058;PMS7003;45932;50.658;3.022;2022-10-31T12:20:38;8.00;8.00;6.33
60058;PMS7003;45932;50.658;3.022;2022-10-31T12:24:17;8.33;8.33;6.00
60058;PMS7003;45932;50.658;3.022;2022-10-31T12:29:41;8.00;8.00;6.00
60058;PMS7003;45932;50.658;3.022;2022-10-31T12:35:29;9.00;9.00;6.00
60058;PMS7003;45932;50.658;3.022;2022-10-31T12:43:12;10.00;9.00;7.00
60058;PMS7003;45932;50.658;3.022;2022-10-31T12:45:59;12.67;9.67;6.67
60058;PMS7003;45932;50.658;3.022;2022-10-31T12:51:40;10.00;9.33;6.67
60058;PMS7003;45932;50.658;3.022;2022-10-31T12:59:45;12.67;11.67;8.33
60058;PMS7003;45932;50.658;3.022;2022-10-31T13:05:16;13.33;10.33;7.00
60058;PMS7003;45932;50.658;3.022;2022-10-31T13:08:04;12.67;11.00;8.33
60058;PMS7003;45932;50.658;3.022;2022-10-31T13:16:15;54.50;45.75;28.00
60058;PMS7003;45932;50.658;3.022;2022-10-31T13:18:51;23.00;20.67;14.67
60058;PMS7003;45932;50.658;3.022;2022-10-31T13:21:23;17.33;14.33;10.33
60058;PMS7003;45932;50.658;3.022;2022-10-31T13:24:11;15.33;13.33;9.33
60058;PMS7003;45932;50.658;3.022;2022-10-31T13:26:50;14.00;13.00;9.33
60058;PMS7003;45932;50.658;3.022;2022-10-31T13:29:39;13.33;12.33;9.00
60058;PMS7003;45932;50.658;3.022;2022-10-31T13:32:25;11.33;10.67;7.33
60058;PMS7003;45932;50.658;3.022;2022-10-31T13:34:55;14.00;12.67;8.67
60058;PMS7003;45932;50.658;3.022;2022-10-31T13:37:34;14.33;11.67;7.00
60058;PMS7003;45932;50.658;3.022;2022-10-31T13:42:53;14.67;12.67;8.67
60058;PMS7003;45932;50.658;3.022;2022-10-31T13:45:25;12.67;12.67;9.00
60058;PMS7003;45932;50.658;3.022;2022-10-31T13:50:55;22.67;19.33;13.33
60058;PMS7003;45932;50.658;3.022;2022-10-31T13:53:23;13.67;13.67;9.67
60058;PMS7003;45932;50.658;3.022;2022-10-31T13:58:33;16.33;11.00;8.67
60058;PMS7003;45932;50.658;3.022;2022-10-31T14:03:28;16.67;11.00;8.00
60058;PMS7003;45932;50.658;3.022;2022-10-31T14:05:55;13.67;13.67;9.67
60058;PMS7003;45932;50.658;3.022;2022-10-31T14:08:22;13.00;11.67;6.00
60058;PMS7003;45932;50.658;3.022;2022-10-31T14:10:49;15.00;14.33;9.00
60058;PMS7003;45932;50.658;3.022;2022-10-31T14:13:21;11.33;11.33;8.00
60058;PMS7003;45932;50.658;3.022;2022-10-31T14:16:20;12.00;10.67;8.33
60058;PMS7003;45932;50.658;3.022;2022-10-31T14:18:51;13.00;12.00;9.33
60058;PMS7003;45932;50.658;3.022;2022-10-31T14:23:52;14.00;12.67;8.33
60058;PMS7003;45932;50.658;3.022;2022-10-31T14:28:46;14.33;12.00;7.67
60058;PMS7003;45932;50.658;3.022;2022-10-31T14:31:30;14.33;13.00;10.00
60058;PMS7003;45932;50.658;3.022;2022-10-31T14:34:02;14.33;13.33;8.33
60058;PMS7003;45932;50.658;3.022;2022-10-31T14:39:38;12.33;12.33;8.67
60058;PMS7003;45932;50.658;3.022;2022-10-31T14:42:34;14.67;13.67;11.00
60058;PMS7003;45932;50.658;3.022;2022-10-31T14:50:55;14.67;13.00;10.00
60058;PMS7003;45932;50.658;3.022;2022-10-31T14:53:29;16.67;15.67;11.33
60058;PMS7003;45932;50.658;3.022;2022-10-31T14:55:58;14.00;14.00;11.67
60058;PMS7003;45932;50.658;3.022;2022-10-31T14:58:35;13.00;13.00;10.33
60058;PMS7003;45932;50.658;3.022;2022-10-31T15:01:04;15.00;12.00;9.67
60058;PMS7003;45932;50.658;3.022;2022-10-31T15:03:38;13.67;12.67;9.67
60058;PMS7003;45932;50.658;3.022;2022-10-31T15:06:11;14.33;13.00;10.33
60058;PMS7003;45932;50.658;3.022;2022-10-31T15:08:46;14.67;13.33;10.00
60058;PMS7003;45932;50.658;3.022;2022-10-31T15:13:51;15.33;15.33;10.00
60058;PMS7003;45932;50.658;3.022;2022-10-31T15:16:22;18.33;13.67;9.00
60058;PMS7003;45932;50.658;3.022;2022-10-31T15:21:21;16.67;15.33;11.33
60058;PMS7003;45932;50.658;3.022;2022-10-31T15:23:49;9.00;9.00;5.67
60058;PMS7003;45932;50.658;3.022;2022-10-31T15:26:18;19.00;16.33;10.33
60058;PMS7003;45932;50.658;3.022;2022-10-31T15:28:46;19.33;16.33;12.33
60058;PMS7003;45932;50.658;3.022;2022-10-31T15:31:22;15.67;15.67;11.33
60058;PMS7003;45932;50.658;3.022;2022-10-31T15:33:47;12.67;12.33;8.67
60058;PMS7003;45932;50.658;3.022;2022-10-31T15:36:21;18.67;15.00;11.00
60058;PMS7003;45932;50.658;3.022;2022-10-31T15:38:48;12.67;12.67;10.33
60058;PMS7003;45932;50.658;3.022;2022-10-31T15:41:34;20.33;16.67;11.67
60058;PMS7003;45932;50.658;3.022;2022-10-31T15:44:19;13.33;13.33;10.67
60058;PMS7003;45932;50.658;3.022;2022-10-31T15:49:46;19.00;16.33;11.33
60058;PMS7003;45932;50.658;3.022;2022-10-31T15:52:22;19.00;17.67;12.67
60058;PMS7003;45932;50.658;3.022;2022-10-31T15:55:05;17.33;16.00;11.33
60058;PMS7003;45932;50.658;3.022;2022-10-31T15:57:51;20.33;20.33;13.00
60058;PMS7003;45932;50.658;3.022;2022-10-31T16:02:47;16.00;15.67;10.67
60058;PMS7003;45932;50.658;3.022;2022-10-31T16:05:17;18.67;17.67;12.33
60058;PMS7003;45932;50.658;3.022;2022-10-31T16:07:53;17.33;15.33;11.00
60058;PMS7003;45932;50.658;3.022;2022-10-31T16:10:24;19.00;14.00;11.00
60058;PMS7003;45932;50.658;3.022;2022-10-31T16:12:50;17.67;14.33;9.67
60058;PMS7003;45932;50.658;3.022;2022-10-31T16:15:17;19.33;17.67;11.67
60058;PMS7003;45932;50.658;3.022;2022-10-31T16:17:46;17.00;15.33;10.67
60058;PMS7003;45932;50.658;3.022;2022-10-31T16:20:25;12.00;11.33;8.67
60058;PMS7003;45932;50.658;3.022;2022-10-31T16:22:53;14.33;14.33;9.67
60058;PMS7003;45932;50.658;3.022;2022-10-31T16:25:25;15.67;13.33;9.33
60058;PMS7003;45932;50.658;3.022;2022-10-31T16:28:04;16.67;13.67;10.67
60058;PMS7003;45932;50.658;3.022;2022-10-31T16:30:43;13.33;12.33;9.33
60058;PMS7003;45932;50.658;3.022;2022-10-31T16:36:01;16.00;13.67;9.67
60058;PMS7003;45932;50.658;3.022;2022-10-31T16:39:03;18.00;14.00;10.33
60058;PMS7003;45932;50.658;3.022;2022-10-31T16:41:29;16.33;14.67;10.33
60058;PMS7003;45932;50.658;3.022;2022-10-31T16:43:54;19.67;12.00;8.67
60058;PMS7003;45932;50.658;3.022;2022-10-31T16:46:24;13.00;13.00;10.00